Time;durP1;ratioP1;P1;durP2;ratioP2;P2;SDS_P1;SDS_P2;PMS_P1;PMS_P2;Temp;Humidity;BMP_temperature;BMP_pressure;BME280_temperature;BME280_humidity;BME280_pressure;Samples;Min_cycle;Max_cycle;Signal;HPM_P1;HPM_P2
2023/06/03 00:01:19;;;;;;;8.20;6.20;;;15.40;61.80;;;;;;5032937;28;20091;-72
2023/06/03 00:03:46;;;;;;;8.52;6.57;;;15.30;61.90;;;;;;5033104;28;20025;-72
2023/06/03 00:06:12;;;;;;;6.90;5.85;;;15.30;62.20;;;;;;5032631;28;20504;-72
2023/06/03 00:08:42;;;;;;;7.10;5.82;;;15.30;62.40;;;;;;5032894;28;20029;-72
2023/06/03 00:11:08;;;;;;;7.47;5.55;;;15.30;62.30;;;;;;5032877;28;20040;-72
2023/06/03 00:13:34;;;;;;;7.82;6.10;;;15.30;62.30;;;;;;5032901;28;20030;-72
2023/06/03 00:16:00;;;;;;;7.78;6.63;;;15.20;62.30;;;;;;5032960;28;20049;-72
2023/06/03 00:18:26;;;;;;;7.63;6.20;;;15.10;62.60;;;;;;5032745;28;20109;-72
2023/06/03 00:20:52;;;;;;;6.53;5.88;;;15.10;62.70;;;;;;5032785;28;20087;-72
2023/06/03 00:23:18;;;;;;;6.90;5.93;;;15.10;62.70;;;;;;5032936;28;20025;-72
2023/06/03 00:25:44;;;;;;;8.65;5.95;;;15.10;62.70;;;;;;5032806;28;20498;-72
2023/06/03 00:28:10;;;;;;;9.07;5.90;;;15.10;62.60;;;;;;5032355;28;20058;-72
2023/06/03 00:30:35;;;;;;;7.78;6.13;;;15.10;62.60;;;;;;5032841;28;20021;-73
2023/06/03 00:33:01;;;;;;;9.63;5.90;;;15.10;62.60;;;;;;5032747;28;20036;-72
2023/06/03 00:35:27;;;;;;;9.25;6.30;;;15.00;62.50;;;;;;5032749;28;20449;-72
2023/06/03 00:37:54;;;;;;;8.63;6.07;;;15.00;62.70;;;;;;5031549;28;20030;-72
2023/06/03 00:40:20;;;;;;;8.18;5.72;;;14.90;62.70;;;;;;5032701;28;20171;-73
2023/06/03 00:42:45;;;;;;;9.02;6.30;;;14.90;62.80;;;;;;5032717;28;20030;-72
2023/06/03 00:45:11;;;;;;;7.88;5.88;;;14.80;62.90;;;;;;5032841;28;20022;-72
2023/06/03 00:47:38;;;;;;;11.05;6.50;;;14.70;63.30;;;;;;5032489;28;20056;-72
2023/06/03 00:50:05;;;;;;;6.50;5.90;;;14.70;63.50;;;;;;5032621;28;20453;-72
2023/06/03 00:52:32;;;;;;;6.60;5.82;;;14.60;63.50;;;;;;5032620;28;20039;-73
2023/06/03 00:54:58;;;;;;;6.55;5.72;;;14.60;63.80;;;;;;5032250;28;20021;-72
2023/06/03 00:57:24;;;;;;;6.93;5.65;;;14.60;63.90;;;;;;5032368;28;20026;-72
2023/06/03 00:59:50;;;;;;;6.65;5.80;;;14.60;63.80;;;;;;5032176;28;20401;-72
2023/06/03 01:02:15;;;;;;;6.93;5.95;;;14.60;63.70;;;;;;5034570;28;20029;-72
2023/06/03 01:04:46;;;;;;;7.20;5.80;;;14.60;63.70;;;;;;5038302;28;20466;-72
2023/06/03 01:07:17;;;;;;;8.18;6.60;;;14.60;63.70;;;;;;5034696;28;20026;-72
2023/06/03 01:10:00;;;;;;;7.60;6.13;;;14.60;63.70;;;;;;5035025;28;20076;-72
2023/06/03 01:12:53;;;;;;;6.32;5.72;;;14.70;63.70;;;;;;5036262;28;20373;-72
2023/06/03 01:15:23;;;;;;;10.60;6.35;;;14.70;63.60;;;;;;5036240;28;20021;-72
2023/06/03 01:17:52;;;;;;;7.63;5.65;;;14.70;63.30;;;;;;5036211;28;20025;-72
2023/06/03 01:20:19;;;;;;;6.47;5.88;;;14.60;63.50;;;;;;5035929;28;20037;-71
2023/06/03 01:22:49;;;;;;;7.13;5.93;;;14.60;63.60;;;;;;5036016;28;20025;-72
2023/06/03 01:25:16;;;;;;;6.63;5.72;;;14.60;63.60;;;;;;5035990;28;20013;-72
2023/06/03 01:27:44;;;;;;;7.15;6.10;;;14.50;63.60;;;;;;5036276;28;20116;-72
2023/06/03 01:30:12;;;;;;;8.40;5.85;;;14.40;63.60;;;;;;5035774;28;20101;-72
2023/06/03 01:32:38;;;;;;;7.85;6.20;;;14.40;63.80;;;;;;5034655;28;20471;-72
2023/06/03 01:35:06;;;;;;;8.05;6.05;;;14.40;64.00;;;;;;5035882;28;20030;-72
2023/06/03 01:37:33;;;;;;;6.05;5.40;;;14.40;64.00;;;;;;5035868;28;20441;-72
2023/06/03 01:40:01;;;;;;;6.55;5.95;;;14.30;64.10;;;;;;5035756;28;20049;-72
2023/06/03 01:42:27;;;;;;;8.77;5.70;;;14.30;64.30;;;;;;5035686;28;20091;-71
2023/06/03 01:44:53;;;;;;;9.32;6.28;;;14.20;64.20;;;;;;5034376;28;20021;-72
2023/06/03 01:47:19;;;;;;;7.75;6.18;;;14.20;64.40;;;;;;5035690;28;20049;-72
2023/06/03 01:49:45;;;;;;;6.60;5.90;;;14.20;64.30;;;;;;5035461;28;20042;-72
2023/06/03 01:52:11;;;;;;;6.90;6.20;;;14.20;64.30;;;;;;5035568;28;20030;-72
2023/06/03 01:54:37;;;;;;;7.75;5.75;;;14.20;64.30;;;;;;5035592;28;20501;-71
2023/06/03 01:57:03;;;;;;;7.45;6.10;;;14.10;64.40;;;;;;5035396;28;20109;-72
2023/06/03 01:59:28;;;;;;;6.82;5.82;;;14.10;64.50;;;;;;5034055;28;20033;-72
2023/06/03 02:01:56;;;;;;;6.95;5.88;;;14.10;64.70;;;;;;5035141;28;20037;-72
2023/06/03 02:04:22;;;;;;;6.60;5.85;;;14.00;64.60;;;;;;5035302;28;20032;-72
2023/06/03 02:06:50;;;;;;;8.43;5.78;;;14.00;65.60;;;;;;5035314;28;20433;-72
2023/06/03 02:09:16;;;;;;;6.85;5.95;;;13.90;65.80;;;;;;5034195;28;20355;-72
2023/06/03 02:11:43;;;;;;;7.50;5.95;;;13.90;65.10;;;;;;5035226;28;20527;-72
2023/06/03 02:14:08;;;;;;;7.00;6.30;;;14.00;65.10;;;;;;5035231;28;20152;-72
2023/06/03 02:16:34;;;;;;;8.20;5.53;;;14.00;65.00;;;;;;5035043;28;20064;-72
2023/06/03 02:19:03;;;;;;;7.05;6.28;;;14.00;64.80;;;;;;5033794;28;20049;-72
2023/06/03 02:21:28;;;;;;;8.13;6.00;;;13.90;64.80;;;;;;5035247;28;20391;-72
2023/06/03 02:23:54;;;;;;;7.15;6.10;;;13.90;65.00;;;;;;5034980;28;20021;-72
2023/06/03 02:26:19;;;;;;;8.45;6.72;;;13.70;65.10;;;;;;5034957;28;20436;-72
2023/06/03 02:28:45;;;;;;;7.35;5.88;;;13.70;65.30;;;;;;5034836;28;20033;-71
2023/06/03 02:31:10;;;;;;;7.50;6.60;;;13.60;65.10;;;;;;5034823;28;20104;-72
2023/06/03 02:33:36;;;;;;;7.18;5.88;;;13.50;65.50;;;;;;5034805;28;20041;-72
2023/06/03 02:36:02;;;;;;;7.10;6.18;;;13.40;65.90;;;;;;5034708;28;20033;-72
2023/06/03 02:38:27;;;;;;;7.35;5.82;;;13.40;66.30;;;;;;5034632;28;20056;-72
2023/06/03 02:40:53;;;;;;;6.90;5.78;;;13.30;66.60;;;;;;5033291;28;20453;-72
2023/06/03 02:43:18;;;;;;;6.78;5.82;;;13.40;66.60;;;;;;5034668;28;20500;-72
2023/06/03 02:45:44;;;;;;;8.55;6.03;;;13.50;66.50;;;;;;5034425;28;20052;-72
2023/06/03 02:48:10;;;;;;;11.85;6.20;;;13.50;66.30;;;;;;5034228;28;20056;-72
2023/06/03 02:50:36;;;;;;;9.00;6.47;;;13.50;66.20;;;;;;5034426;28;20036;-74
2023/06/03 02:53:01;;;;;;;8.48;6.70;;;13.50;66.30;;;;;;5034356;28;20033;-72
2023/06/03 02:55:27;;;;;;;8.05;6.20;;;13.50;66.50;;;;;;5034421;28;20029;-72
2023/06/03 02:57:53;;;;;;;7.47;6.05;;;13.50;66.60;;;;;;5034636;28;20022;-71
2023/06/03 03:00:18;;;;;;;7.50;6.45;;;13.50;66.50;;;;;;5034282;28;20112;-71
2023/06/03 03:02:44;;;;;;;7.05;6.35;;;13.50;66.40;;;;;;5034190;28;20025;-71
2023/06/03 03:05:10;;;;;;;9.18;6.82;;;13.50;66.20;;;;;;5034236;28;20089;-72
2023/06/03 03:07:36;;;;;;;7.43;6.63;;;13.40;66.30;;;;;;5034208;28;20025;-72
2023/06/03 03:10:04;;;;;;;8.05;6.50;;;13.40;66.30;;;;;;5034145;28;20152;-72
2023/06/03 03:12:29;;;;;;;8.27;6.95;;;13.40;66.30;;;;;;5034200;28;20036;-72
2023/06/03 03:14:56;;;;;;;8.02;6.88;;;13.40;66.30;;;;;;5033871;28;20022;-72
2023/06/03 03:17:21;;;;;;;8.65;6.65;;;13.40;66.50;;;;;;5033926;28;20021;-72
2023/06/03 03:19:47;;;;;;;9.60;7.07;;;13.30;66.70;;;;;;5033983;28;20377;-72
2023/06/03 03:22:12;;;;;;;7.18;6.47;;;13.30;66.80;;;;;;5032328;28;20433;-72
2023/06/03 03:24:40;;;;;;;7.70;6.28;;;13.30;66.70;;;;;;5033555;28;20474;-72
2023/06/03 03:27:06;;;;;;;10.02;6.70;;;13.30;66.90;;;;;;5033531;28;20029;-72
2023/06/03 03:29:33;;;;;;;6.97;6.05;;;13.30;67.00;;;;;;5033362;28;20072;-72
2023/06/03 03:32:07;;;;;;;8.02;6.47;;;13.30;67.10;;;;;;5032377;28;20056;-72
2023/06/03 03:34:36;;;;;;;7.80;6.97;;;13.30;67.10;;;;;;5033675;28;20532;-73
2023/06/03 03:37:01;;;;;;;8.35;7.00;;;13.30;67.00;;;;;;5033358;28;20025;-72
2023/06/03 03:39:27;;;;;;;8.18;7.28;;;13.30;66.90;;;;;;5033461;28;20047;-72
2023/06/03 03:41:53;;;;;;;7.85;6.82;;;13.30;66.60;;;;;;5033377;28;20034;-72
2023/06/03 03:44:18;;;;;;;12.18;7.18;;;13.20;66.70;;;;;;5032125;28;20021;-72
2023/06/03 03:46:51;;;;;;;8.00;7.15;;;13.10;67.00;;;;;;5033293;28;20030;-72
2023/06/03 03:49:26;;;;;;;9.23;6.90;;;13.10;68.00;;;;;;5033086;28;20060;-72
2023/06/03 03:51:52;;;;;;;8.70;6.97;;;13.10;67.30;;;;;;5033227;28;20438;-72
2023/06/03 03:54:22;;;;;;;7.55;6.57;;;13.10;67.20;;;;;;5033416;28;20025;-72
2023/06/03 03:56:54;;;;;;;7.68;6.63;;;13.10;67.20;;;;;;5033264;28;20076;-72
2023/06/03 03:59:19;;;;;;;8.90;6.78;;;13.20;67.00;;;;;;5033319;28;20467;-73
2023/06/03 04:01:45;;;;;;;7.20;6.18;;;13.20;66.90;;;;;;5033055;28;20044;-72
2023/06/03 04:04:13;;;;;;;7.28;6.50;;;13.20;67.00;;;;;;5033165;28;20021;-72
2023/06/03 04:06:39;;;;;;;9.75;6.72;;;13.20;66.90;;;;;;5033192;28;20492;-72
2023/06/03 04:09:06;;;;;;;9.52;6.30;;;13.20;66.80;;;;;;5032096;28;20383;-72
2023/06/03 04:11:44;;;;;;;8.10;6.28;;;13.30;66.90;;;;;;5033155;28;20026;-72
2023/06/03 04:14:14;;;;;;;8.90;7.30;;;13.30;66.80;;;;;;5033382;28;20017;-72
2023/06/03 04:16:58;;;;;;;9.52;7.28;;;13.30;66.70;;;;;;5033133;28;20048;-72
2023/06/03 04:19:41;;;;;;;9.07;6.45;;;13.40;66.50;;;;;;5033009;28;20029;-72
2023/06/03 04:22:08;;;;;;;8.13;7.10;;;13.50;66.40;;;;;;5032965;28;20041;-72
2023/06/03 04:24:35;;;;;;;10.10;6.90;;;13.60;66.10;;;;;;5032961;28;20216;-72
2023/06/03 04:27:06;;;;;;;9.90;5.97;;;13.60;65.70;;;;;;5033156;28;20033;-72
2023/06/03 04:29:32;;;;;;;8.95;6.63;;;13.70;65.80;;;;;;5033002;28;20107;-72
2023/06/03 04:31:57;;;;;;;8.15;7.05;;;13.80;65.70;;;;;;5032855;28;20061;-73
2023/06/03 04:34:26;;;;;;;9.32;7.10;;;13.80;65.70;;;;;;5032819;28;20386;-72
2023/06/03 04:36:52;;;;;;;9.43;6.53;;;13.90;65.80;;;;;;5032811;28;20130;-72
2023/06/03 04:39:18;;;;;;;8.50;7.07;;;14.00;65.50;;;;;;5032862;28;20179;-72
2023/06/03 04:41:44;;;;;;;7.47;6.47;;;14.20;64.70;;;;;;5035353;28;20080;-72
2023/06/03 04:44:11;;;;;;;7.68;6.72;;;14.30;64.50;;;;;;5039914;28;20013;-72
2023/06/03 04:46:37;;;;;;;8.80;7.03;;;14.30;64.00;;;;;;5036792;28;20107;-72
2023/06/03 04:49:03;;;;;;;12.82;7.10;;;14.40;63.80;;;;;;5036891;28;20049;-72
2023/06/03 04:51:33;;;;;;;7.57;6.28;;;14.40;63.60;;;;;;5036882;28;20039;-72
2023/06/03 04:54:00;;;;;;;9.88;7.10;;;14.50;63.50;;;;;;5037037;28;20036;-72
2023/06/03 04:56:28;;;;;;;7.97;7.18;;;14.60;63.20;;;;;;5036613;28;20117;-72
2023/06/03 04:58:55;;;;;;;10.98;7.53;;;14.70;62.80;;;;;;5036069;28;20057;-73
2023/06/03 05:01:23;;;;;;;9.52;7.07;;;14.80;62.30;;;;;;5035321;28;20042;-72
2023/06/03 05:03:49;;;;;;;10.60;7.68;;;14.90;62.10;;;;;;5036503;28;20017;-72
2023/06/03 05:06:14;;;;;;;11.48;8.25;;;14.90;61.60;;;;;;5036498;28;20018;-72
2023/06/03 05:08:40;;;;;;;12.90;8.45;;;14.90;61.20;;;;;;5036373;28;20099;-72
2023/06/03 05:11:05;;;;;;;17.27;8.80;;;14.70;62.30;;;;;;5036116;28;20061;-72
2023/06/03 05:13:32;;;;;;;11.77;7.65;;;14.50;62.70;;;;;;5036129;28;20544;-72
2023/06/03 05:15:57;;;;;;;8.70;6.88;;;14.50;63.00;;;;;;5036049;28;20552;-72
2023/06/03 05:18:23;;;;;;;11.90;7.90;;;14.60;62.80;;;;;;5036174;28;20033;-72
2023/06/03 05:20:48;;;;;;;10.38;7.38;;;14.80;62.20;;;;;;5035934;28;20385;-72
2023/06/03 05:23:14;;;;;;;9.18;7.43;;;15.00;61.60;;;;;;5036015;28;20029;-73
2023/06/03 05:25:39;;;;;;;13.70;8.30;;;15.10;61.20;;;;;;5036263;28;20481;-72
2023/06/03 05:28:06;;;;;;;8.57;7.28;;;15.20;60.80;;;;;;5036023;28;20100;-73
2023/06/03 05:30:31;;;;;;;13.10;8.02;;;15.20;60.70;;;;;;5035857;28;20021;-71
2023/06/03 05:32:57;;;;;;;15.35;8.40;;;15.20;60.70;;;;;;5035879;28;20025;-71
2023/06/03 05:35:22;;;;;;;14.45;7.35;;;15.10;60.40;;;;;;5035942;28;20029;-73
2023/06/03 05:37:48;;;;;;;14.65;7.68;;;15.10;60.70;;;;;;5035725;28;20025;-71
2023/06/03 05:40:13;;;;;;;18.52;7.68;;;15.20;60.10;;;;;;5035239;28;20032;-71
2023/06/03 05:42:39;;;;;;;8.30;6.63;;;15.10;60.50;;;;;;5035547;28;20091;-71
2023/06/03 05:45:05;;;;;;;12.98;7.32;;;15.30;60.50;;;;;;5035500;28;20034;-71
2023/06/03 05:47:31;;;;;;;12.40;7.45;;;15.30;59.60;;;;;;5035423;28;20041;-71
2023/06/03 05:49:56;;;;;;;14.10;7.43;;;15.20;60.60;;;;;;5035359;28;20379;-72
2023/06/03 05:52:22;;;;;;;16.23;7.30;;;15.20;60.70;;;;;;5034921;28;20033;-72
2023/06/03 05:54:47;;;;;;;14.52;7.82;;;15.20;59.90;;;;;;5035180;28;20036;-73
2023/06/03 05:57:13;;;;;;;15.73;8.52;;;15.30;59.60;;;;;;5035217;28;20442;-73
2023/06/03 05:59:38;;;;;;;12.68;7.80;;;15.30;59.00;;;;;;5035143;28;20117;-73
2023/06/03 06:02:05;;;;;;;12.25;7.30;;;15.40;59.40;;;;;;5035047;28;20041;-73
2023/06/03 06:04:30;;;;;;;12.88;7.13;;;15.50;59.30;;;;;;5035268;28;20061;-73
2023/06/03 06:06:56;;;;;;;12.27;6.75;;;15.60;59.20;;;;;;5035213;28;20037;-74
2023/06/03 06:09:21;;;;;;;9.85;5.97;;;15.80;58.50;;;;;;5035185;28;20021;-74
2023/06/03 06:11:47;;;;;;;12.57;7.20;;;16.00;58.10;;;;;;5034944;28;20045;-72
2023/06/03 06:14:12;;;;;;;12.68;7.03;;;16.10;57.60;;;;;;5033914;28;20116;-73
2023/06/03 06:16:38;;;;;;;11.80;6.40;;;16.20;57.30;;;;;;5035090;28;20048;-72
2023/06/03 06:19:03;;;;;;;13.20;7.78;;;16.20;57.10;;;;;;5034894;28;20024;-73
2023/06/03 06:21:29;;;;;;;12.32;6.63;;;16.20;57.10;;;;;;5033672;28;20037;-73
2023/06/03 06:23:55;;;;;;;13.70;7.30;;;16.10;57.80;;;;;;5034914;28;20025;-75
2023/06/03 06:26:21;;;;;;;18.95;8.70;;;16.00;58.20;;;;;;5034855;28;20033;-74
2023/06/03 06:28:46;;;;;;;18.33;8.30;;;16.00;58.10;;;;;;5035062;28;20520;-73
2023/06/03 06:31:13;;;;;;;12.10;7.22;;;15.80;58.50;;;;;;5034797;28;20370;-75
2023/06/03 06:33:41;;;;;;;15.82;7.78;;;15.70;58.70;;;;;;5034593;28;20029;-73
2023/06/03 06:36:28;;;;;;;16.63;7.45;;;15.90;58.90;;;;;;5033556;28;20104;-72
2023/06/03 06:38:54;;;;;;;12.98;7.63;;;16.00;58.10;;;;;;5034402;28;20029;-73
2023/06/03 06:41:21;;;;;;;14.57;7.32;;;16.20;57.30;;;;;;5034525;28;20120;-73
2023/06/03 06:43:46;;;;;;;16.40;7.32;;;16.30;56.90;;;;;;5034438;28;20454;-73
2023/06/03 06:46:12;;;;;;;15.85;7.72;;;16.10;56.70;;;;;;5034142;28;20072;-73
2023/06/03 06:48:40;;;;;;;15.15;8.70;;;16.10;57.80;;;;;;5033989;28;20100;-75
2023/06/03 06:51:06;;;;;;;16.38;7.30;;;16.20;56.70;;;;;;5034300;28;20486;-73
2023/06/03 06:53:35;;;;;;;14.70;6.95;;;16.30;57.30;;;;;;5034217;28;20029;-73
2023/06/03 06:56:06;;;;;;;12.90;6.20;;;16.50;57.20;;;;;;5034030;28;20543;-73
2023/06/03 06:58:37;;;;;;;16.20;6.50;;;16.70;56.70;;;;;;5034080;28;20033;-73
2023/06/03 07:01:07;;;;;;;14.13;7.57;;;17.00;56.00;;;;;;5032761;28;20036;-73
2023/06/03 07:03:33;;;;;;;17.73;7.70;;;17.10;55.20;;;;;;5033011;28;20113;-72
2023/06/03 07:05:59;;;;;;;11.05;6.60;;;17.10;55.10;;;;;;5033212;28;20025;-71
2023/06/03 07:08:26;;;;;;;11.70;6.10;;;17.20;55.30;;;;;;5033807;28;20033;-71
2023/06/03 07:10:57;;;;;;;11.10;6.95;;;17.40;54.60;;;;;;5032644;28;20084;-75
2023/06/03 07:13:23;;;;;;;12.05;6.43;;;17.60;54.20;;;;;;5032823;28;20026;-72
2023/06/03 07:15:48;;;;;;;10.70;6.50;;;17.70;53.30;;;;;;5033751;28;20047;-72
2023/06/03 07:18:14;;;;;;;9.48;6.05;;;17.90;53.50;;;;;;5033813;28;20481;-71
2023/06/03 07:20:42;;;;;;;13.30;6.80;;;18.10;53.10;;;;;;5033693;28;20030;-71
2023/06/03 07:23:28;;;;;;;15.23;6.22;;;18.00;52.90;;;;;;5033457;28;20091;-72
2023/06/03 07:25:55;;;;;;;14.10;6.57;;;18.10;53.10;;;;;;5033284;28;20061;-71
2023/06/03 07:28:32;;;;;;;28.23;7.35;;;18.20;52.60;;;;;;5033531;28;20029;-73
2023/06/03 07:31:00;;;;;;;15.15;7.07;;;18.40;58.00;;;;;;5032042;28;20034;-72
2023/06/03 07:33:28;;;;;;;9.82;6.00;;;18.50;54.50;;;;;;5033580;28;20095;-72
2023/06/03 07:35:58;;;;;;;12.10;5.72;;;18.60;54.00;;;;;;5033371;28;20018;-72
2023/06/03 07:38:39;;;;;;;9.55;5.55;;;18.90;53.80;;;;;;5033095;28;20128;-72
2023/06/03 07:41:06;;;;;;;15.82;6.28;;;19.20;52.00;;;;;;5033043;28;20039;-72
2023/06/03 07:43:36;;;;;;;11.88;5.53;;;19.40;50.00;;;;;;5033052;28;20029;-72
2023/06/03 07:46:05;;;;;;;15.90;6.85;;;19.50;51.40;;;;;;5032995;28;20060;-72
2023/06/03 07:48:33;;;;;;;18.30;7.53;;;19.40;50.80;;;;;;5032767;28;20083;-73
2023/06/03 07:50:58;;;;;;;12.75;6.38;;;18.90;51.80;;;;;;5033117;28;20026;-73
2023/06/03 07:53:24;;;;;;;10.05;6.47;;;18.90;52.60;;;;;;5032713;28;20025;-72
2023/06/03 07:55:50;;;;;;;10.77;5.70;;;19.10;51.70;;;;;;5032961;28;20392;-72
2023/06/03 07:58:17;;;;;;;13.68;5.95;;;18.80;52.00;;;;;;5032738;28;20131;-75
2023/06/03 08:00:45;;;;;;;16.70;5.88;;;18.90;53.00;;;;;;5032826;28;20032;-72
2023/06/03 08:03:18;;;;;;;19.10;6.30;;;19.20;52.20;;;;;;5033290;28;20044;-74
2023/06/03 08:05:47;;;;;;;15.25;5.65;;;19.60;51.20;;;;;;5032906;28;20398;-72
2023/06/03 08:08:13;;;;;;;12.18;5.47;;;19.90;50.50;;;;;;5033081;28;20062;-71
2023/06/03 08:10:40;;;;;;;8.75;5.72;;;20.10;49.80;;;;;;5032882;28;20037;-72
2023/06/03 08:13:06;;;;;;;11.60;5.28;;;20.20;48.80;;;;;;5033064;28;20034;-73
2023/06/03 08:15:35;;;;;;;13.98;5.20;;;20.40;48.70;;;;;;5032577;28;20025;-75
2023/06/03 08:18:08;;;;;;;12.75;5.25;;;20.60;48.10;;;;;;5032783;28;20025;-73
2023/06/03 08:20:36;;;;;;;11.68;5.65;;;20.80;48.10;;;;;;5031534;28;20116;-74
2023/06/03 08:23:02;;;;;;;12.25;6.47;;;20.90;47.90;;;;;;5031545;28;20033;-72
2023/06/03 08:25:28;;;;;;;14.70;6.82;;;20.30;48.40;;;;;;5032805;28;20105;-74
2023/06/03 08:27:53;;;;;;;15.73;6.18;;;20.00;49.70;;;;;;5031339;28;20116;-73
2023/06/03 08:30:22;;;;;;;16.13;6.80;;;20.00;50.50;;;;;;5032599;28;20028;-74
2023/06/03 08:32:48;;;;;;;13.13;6.20;;;20.10;49.80;;;;;;5031475;28;20032;-74
2023/06/03 08:35:17;;;;;;;13.48;6.25;;;20.30;49.90;;;;;;5032748;28;20076;-78
2023/06/03 08:37:43;;;;;;;15.68;6.85;;;20.40;49.30;;;;;;5032586;28;20104;-78
2023/06/03 08:40:17;;;;;;;13.60;6.13;;;20.10;49.70;;;;;;5032324;28;20441;-74
2023/06/03 08:42:45;;;;;;;11.52;5.68;;;20.00;50.30;;;;;;5032613;28;20042;-77
2023/06/03 08:45:15;;;;;;;13.00;5.82;;;20.00;50.40;;;;;;5032597;28;20112;-72
2023/06/03 08:47:50;;;;;;;13.25;4.88;;;20.20;50.50;;;;;;5032393;28;20039;-74
2023/06/03 08:50:17;;;;;;;10.00;5.30;;;20.50;50.10;;;;;;5032164;28;20045;-73
2023/06/03 08:52:45;;;;;;;11.80;6.03;;;20.80;49.30;;;;;;5032376;28;20057;-73
2023/06/03 08:55:14;;;;;;;13.02;6.15;;;21.10;48.20;;;;;;5032207;28;20022;-73
2023/06/03 08:58:26;;;;;;;17.25;6.95;;;21.20;47.90;;;;;;5032500;28;20022;-73
2023/06/03 09:00:59;;;;;;;12.23;5.57;;;21.20;47.20;;;;;;5032452;28;20084;-73
2023/06/03 09:03:25;;;;;;;11.93;6.22;;;21.30;47.50;;;;;;5032151;28;20076;-73
2023/06/03 09:05:52;;;;;;;12.55;5.80;;;21.30;47.50;;;;;;5032292;28;20032;-72
2023/06/03 09:08:19;;;;;;;15.02;6.85;;;21.20;48.00;;;;;;5032240;28;20044;-73
2023/06/03 09:10:48;;;;;;;10.82;6.00;;;21.10;48.50;;;;;;5032258;28;20021;-72
2023/06/03 09:13:16;;;;;;;11.18;6.10;;;21.10;48.70;;;;;;5032349;28;20056;-73
2023/06/03 09:15:42;;;;;;;11.05;5.95;;;21.10;48.20;;;;;;5031800;28;20452;-73
2023/06/03 09:18:08;;;;;;;12.70;6.25;;;21.30;48.30;;;;;;5032019;28;20021;-72
2023/06/03 09:20:37;;;;;;;13.40;5.57;;;21.20;48.30;;;;;;5031632;28;20022;-72
2023/06/03 09:23:03;;;;;;;11.90;6.32;;;21.20;48.30;;;;;;5031642;28;20056;-73
2023/06/03 09:25:29;;;;;;;8.85;5.60;;;21.20;48.20;;;;;;5031867;28;20025;-74
2023/06/03 09:27:55;;;;;;;11.18;5.35;;;21.50;47.50;;;;;;5030232;28;20033;-73
2023/06/03 09:30:21;;;;;;;12.68;5.55;;;21.70;48.40;;;;;;5035434;28;20021;-72
2023/06/03 09:32:47;;;;;;;11.07;6.03;;;21.90;46.90;;;;;;5035434;28;20029;-72
2023/06/03 09:35:13;;;;;;;11.75;5.85;;;21.90;46.20;;;;;;5035339;28;20029;-73
2023/06/03 09:37:56;;;;;;;11.27;5.10;;;21.90;46.20;;;;;;5035462;28;20026;-73
2023/06/03 09:40:29;;;;;;;12.95;4.45;;;21.90;46.60;;;;;;5033616;28;20033;-72
2023/06/03 09:42:56;;;;;;;11.00;5.30;;;22.20;46.30;;;;;;5032623;28;20031;-73
2023/06/03 09:45:32;;;;;;;12.57;6.13;;;22.50;45.30;;;;;;5035075;28;20041;-72
2023/06/03 09:47:59;;;;;;;15.75;6.20;;;22.70;45.10;;;;;;5032968;28;20033;-73
2023/06/03 09:50:27;;;;;;;18.42;6.32;;;22.80;43.70;;;;;;5034455;28;20029;-73
2023/06/03 09:52:53;;;;;;;13.55;6.00;;;22.50;44.00;;;;;;5034873;28;20061;-75
2023/06/03 09:55:22;;;;;;;12.57;5.68;;;22.40;45.00;;;;;;5034516;28;20075;-77
2023/06/03 09:58:09;;;;;;;17.38;6.07;;;22.70;45.60;;;;;;5033662;28;20108;-72
2023/06/03 10:00:56;;;;;;;12.82;6.07;;;22.70;44.20;;;;;;5033987;28;20386;-73
2023/06/03 10:03:25;;;;;;;10.10;5.47;;;22.80;45.10;;;;;;5030828;28;20486;-73
2023/06/03 10:05:50;;;;;;;13.43;6.38;;;22.90;43.90;;;;;;5034388;28;20099;-72
2023/06/03 10:08:28;;;;;;;9.52;5.68;;;23.20;42.70;;;;;;5034702;28;20094;-72
2023/06/03 10:10:59;;;;;;;9.55;5.72;;;23.30;44.80;;;;;;5034989;28;20099;-72
2023/06/03 10:13:25;;;;;;;16.55;6.18;;;23.40;43.50;;;;;;5034682;28;20458;-74
2023/06/03 10:15:52;;;;;;;12.77;6.22;;;23.10;44.50;;;;;;5034398;28;20056;-72
2023/06/03 10:18:33;;;;;;;10.77;5.65;;;23.00;43.80;;;;;;5035057;28;20021;-72
2023/06/03 10:21:04;;;;;;;16.83;6.97;;;23.00;43.30;;;;;;5032893;28;20466;-72
2023/06/03 10:23:31;;;;;;;16.35;6.45;;;23.10;43.60;;;;;;5034538;28;20029;-74
2023/06/03 10:25:57;;;;;;;12.35;6.13;;;23.00;43.50;;;;;;5034152;28;20044;-72
2023/06/03 10:28:25;;;;;;;16.40;6.63;;;23.10;43.40;;;;;;5032994;28;20026;-73
2023/06/03 10:30:51;;;;;;;17.08;7.15;;;22.80;43.90;;;;;;5034446;28;20024;-72
2023/06/03 10:33:19;;;;;;;12.52;6.30;;;23.10;43.90;;;;;;5034395;28;20036;-72
2023/06/03 10:35:46;;;;;;;14.35;5.95;;;23.20;43.30;;;;;;5034556;28;20029;-72
2023/06/03 10:38:12;;;;;;;9.48;5.30;;;23.10;44.30;;;;;;5034274;28;20072;-72
2023/06/03 10:40:38;;;;;;;12.00;6.00;;;23.20;43.90;;;;;;5033291;28;20095;-72
2023/06/03 10:43:04;;;;;;;15.52;6.32;;;23.30;43.70;;;;;;5034238;28;20029;-72
2023/06/03 10:45:30;;;;;;;14.50;5.63;;;23.30;43.50;;;;;;5033905;28;20025;-72
2023/06/03 10:48:05;;;;;;;14.35;5.85;;;23.50;42.90;;;;;;5032734;28;20489;-72
2023/06/03 10:51:00;;;;;;;9.98;5.63;;;24.00;42.90;;;;;;5034083;28;20087;-73
2023/06/03 10:53:32;;;;;;;13.05;5.53;;;24.30;41.50;;;;;;5034492;28;20030;-73
2023/06/03 10:56:13;;;;;;;9.93;6.55;;;24.40;42.40;;;;;;5034827;28;20025;-73
2023/06/03 10:58:42;;;;;;;13.13;5.82;;;24.40;41.40;;;;;;5037938;28;20025;-71
2023/06/03 11:01:08;;;;;;;14.50;6.15;;;24.40;41.30;;;;;;5039034;28;20079;-75
2023/06/03 11:03:52;;;;;;;10.40;5.30;;;24.30;40.80;;;;;;5034972;28;20032;-72
2023/06/03 11:06:25;;;;;;;9.23;5.18;;;24.40;40.70;;;;;;5033869;28;20030;-73
2023/06/03 11:08:57;;;;;;;9.90;5.78;;;24.90;40.90;;;;;;5033841;28;20022;-73
2023/06/03 11:11:48;;;;;;;15.05;5.88;;;25.10;39.80;;;;;;5034106;28;20036;-72
2023/06/03 11:14:48;;;;;;;18.95;6.18;;;25.30;38.70;;;;;;5033682;28;20017;-72
2023/06/03 11:17:18;;;;;;;11.95;6.28;;;25.20;38.80;;;;;;5021973;28;20076;-72
2023/06/03 11:19:55;;;;;;;11.80;5.85;;;25.20;39.30;;;;;;5034041;28;20030;-71
2023/06/03 11:22:27;;;;;;;9.57;5.00;;;25.50;38.60;;;;;;5033711;28;20052;-74
2023/06/03 11:24:53;;;;;;;14.35;5.10;;;25.90;37.90;;;;;;5033655;28;20113;-70
2023/06/03 11:27:19;;;;;;;13.40;5.32;;;26.10;38.20;;;;;;5033537;28;20040;-71
2023/06/03 11:29:47;;;;;;;19.90;6.32;;;26.30;38.00;;;;;;5033402;28;20096;-72
2023/06/03 11:32:20;;;;;;;14.20;5.75;;;26.50;36.70;;;;;;5033127;28;20667;-74
2023/06/03 11:34:47;;;;;;;13.60;5.60;;;25.80;36.90;;;;;;5033436;28;20048;-70
2023/06/03 11:37:15;;;;;;;9.45;5.60;;;25.30;38.70;;;;;;5033253;28;20030;-72
2023/06/03 11:40:05;;;;;;;13.80;6.15;;;25.20;39.30;;;;;;5032795;28;20628;-73
2023/06/03 11:42:31;;;;;;;14.77;5.65;;;25.50;38.30;;;;;;5031840;28;20124;-77
2023/06/03 11:45:24;;;;;;;16.35;5.75;;;25.70;38.10;;;;;;5033282;28;20032;-76
2023/06/03 11:47:58;;;;;;;9.73;5.10;;;25.90;37.30;;;;;;5033415;28;20022;-76
2023/06/03 11:50:26;;;;;;;11.43;5.97;;;26.30;37.10;;;;;;5032614;28;20128;-75
2023/06/03 11:52:51;;;;;;;13.02;5.78;;;26.40;36.00;;;;;;5033073;28;20029;-72
2023/06/03 11:55:24;;;;;;;11.07;5.60;;;26.20;37.00;;;;;;5033099;28;20033;-76
2023/06/03 11:57:50;;;;;;;10.77;5.25;;;26.40;36.00;;;;;;5033503;28;20047;-70
2023/06/03 12:00:17;;;;;;;9.48;5.63;;;26.40;35.70;;;;;;5033225;28;20420;-71
2023/06/03 12:02:46;;;;;;;11.68;4.82;;;26.40;36.20;;;;;;5032445;28;20135;-71
2023/06/03 12:05:15;;;;;;;8.85;4.90;;;26.80;35.80;;;;;;5031539;28;20025;-72
2023/06/03 12:07:43;;;;;;;10.88;5.43;;;27.30;35.60;;;;;;5032947;28;20493;-72
2023/06/03 12:10:09;;;;;;;11.50;4.97;;;27.70;34.50;;;;;;5032617;28;20030;-71
2023/06/03 12:12:35;;;;;;;12.38;4.95;;;28.10;32.30;;;;;;5032659;28;20017;-72
2023/06/03 12:15:07;;;;;;;6.50;4.90;;;28.20;32.00;;;;;;5032596;28;20060;-72
2023/06/03 12:17:33;;;;;;;8.23;5.35;;;28.30;31.50;;;;;;5032729;28;20022;-72
2023/06/03 12:20:00;;;;;;;14.13;6.75;;;28.70;32.30;;;;;;5033051;28;20109;-71
2023/06/03 12:22:27;;;;;;;12.35;5.85;;;28.90;31.00;;;;;;5032743;28;20030;-71
2023/06/03 12:24:53;;;;;;;9.05;4.88;;;28.90;30.60;;;;;;5032637;28;20418;-72
2023/06/03 12:27:24;;;;;;;13.82;5.85;;;28.70;31.10;;;;;;5032802;28;20030;-72
2023/06/03 12:30:00;;;;;;;8.55;5.65;;;28.40;31.30;;;;;;5032619;28;20109;-71
2023/06/03 12:32:28;;;;;;;10.40;5.15;;;28.00;32.00;;;;;;5031768;28;20025;-72
2023/06/03 12:34:55;;;;;;;10.10;4.85;;;27.50;32.60;;;;;;5030741;28;20091;-72
2023/06/03 12:37:28;;;;;;;11.98;5.45;;;27.30;33.70;;;;;;5032387;28;20048;-72
2023/06/03 12:39:55;;;;;;;11.55;5.63;;;27.20;33.80;;;;;;5030991;28;20021;-76
2023/06/03 12:42:33;;;;;;;9.23;5.10;;;27.10;34.10;;;;;;5032432;28;20103;-71
2023/06/03 12:44:59;;;;;;;7.60;4.93;;;26.90;33.80;;;;;;5030990;28;20429;-72
2023/06/03 12:47:25;;;;;;;13.13;5.28;;;26.90;34.00;;;;;;5030993;28;20087;-72